Flight Track Log - Related Links

Times and Time Zones

All times are in EDT time to prevent confusion due to time zone crossing. See the ASQ4252 flight status page for this flight to view local times or setup timezone preferences in your user account.

Time Position Orientation Groundspeed Altitude Reporting Facility
EDT Latitude Longitude Course Direction KTS MPH feet Rate Location/Type
Tue 05:54:31 AM 43.6503 -70.4486 232° Southwest 199 229 3,400  Level Boston Center
Tue 05:55:00 AM 43.5456 -70.1377 216° Southwest  Level FlightAware Approximate
Tue 05:55:31 AM 43.5908 -70.5136 218° Southwest 229 264 6,300  Level Boston Center
Tue 05:56:00 AM 43.4833 -70.2301 229° Southwest  Level FlightAware Approximate
Tue 05:56:31 AM 43.5394 -70.5611 214° Southwest 252 290 8,600  Level Boston Center
Tue 05:57:00 AM 43.4269 -70.3295 235° Southwest  Level FlightAware Approximate
Tue 05:57:31 AM 43.4650 -70.5978 200° South 257 296 10,900  Level Boston Center
Tue 05:58:00 AM 43.3650 -70.4224 226° Southwest  Level FlightAware Approximate
Tue 05:58:31 AM 43.3842 -70.6289 196° South 287 330 11,500  Level Boston Center
Tue 05:59:00 AM 43.3046 -70.5171 232° Southwest  Level FlightAware Approximate
Tue 05:59:55 AM 43.2869 -70.6717 198° South 329 379 12,800  Level Boston Center
Tue 06:00:55 AM 43.1731 -70.7178 196° South 351 404 14,400 1,500 Climbing Boston Center
Tue 06:01:55 AM 43.0761 -70.7800 205° Southwest 351 404 15,800 1,200 Climbing Boston Center
Tue 06:02:55 AM 42.9889 -70.8053 192° South 356 410 16,800 850 Climbing Boston Center
Tue 06:03:55 AM 42.9125 -70.8469 202° Southwest 361 415 17,500 950 Climbing Boston Center
Tue 06:04:55 AM 42.8028 -70.9206 206° Southwest 367 422 18,700 1,100 Climbing Boston Center
Tue 06:05:55 AM 42.7017 -70.9850 205° Southwest 372 428 19,700 1,000 Climbing Boston Center
Tue 06:06:55 AM 42.6086 -71.0494 207° Southwest 372 428 20,700 1,000 Climbing Boston Center
Tue 06:07:55 AM 42.5178 -71.1219 210° Southwest 372 428 21,700 1,250 Climbing Boston Center
Tue 06:08:55 AM 42.4753 -71.2381 244° Southwest 342 394 23,200 1,450 Climbing Boston Center
Tue 06:09:55 AM 42.4517 -71.3594 255° West 336 387 24,600 1,400 Climbing Boston Center
Tue 06:10:55 AM 42.4256 -71.4811 254° West 342 394 26,000 1,450 Climbing Boston Center
Tue 06:11:55 AM 42.3972 -71.6022 252° West 342 394 27,500 1,400 Climbing Boston Center
Tue 06:12:55 AM 42.3731 -71.7122 253° West 335 386 28,800 1,250 Climbing Boston Center
Tue 06:13:55 AM 42.3508 -71.8247 255° West 322 371 30,000 1,250 Climbing Boston Center
Tue 06:14:55 AM 42.3117 -71.9319 244° Southwest 317 365 31,300 1,250 Climbing Boston Center
Tue 06:15:55 AM 42.2683 -72.0361 241° Southwest 317 365 32,500 1,250 Climbing Boston Center
Tue 06:16:55 AM 42.2250 -72.1400 241° Southwest 317 365 33,800 1,250 Climbing Boston Center
Tue 06:17:55 AM 42.1836 -72.2411 241° Southwest 322 371 35,000 1,100 Climbing Boston Center
Tue 06:18:55 AM 42.1397 -72.3392 239° Southwest 317 365 36,000 500 Climbing Boston Center
Tue 06:19:55 AM 42.0961 -72.4456 241° Southwest 317 365 36,000  Level Boston Center
Tue 06:20:55 AM 42.0503 -72.5603 242° Southwest 323 372 36,000  Level Boston Center
Tue 06:21:55 AM 41.9981 -72.6692 237° Southwest 341 392 36,000  Level Boston Center
Tue 06:22:55 AM 41.9372 -72.7778 233° Southwest 352 405 36,000  Level Boston Center
Tue 06:23:55 AM 41.8764 -72.8833 232° Southwest 363 418 36,000  Level Boston Center
Tue 06:24:55 AM 41.8175 -72.9917 234° Southwest 363 418 36,000  Level Boston Center
Tue 06:25:55 AM 41.7608 -73.0969 234° Southwest 373 429 36,000  Level Boston Center
Tue 06:26:55 AM 41.6997 -73.2047 233° Southwest 373 429 36,000 -100 Level Boston Center
Tue 06:27:55 AM 41.6383 -73.3122 233° Southwest 373 429 35,800 -600 Descending Boston Center
Tue 06:28:55 AM 41.5769 -73.4225 233° Southwest 373 429 34,800 -1,091 Descending Boston Center
Tue 06:31:13 AM 41.4297 -73.6875 234° Southwest 380 437 32,200 -1,110 Descending New York Center
Tue 06:32:15 AM 41.3664 -73.7981 233° Southwest 380 437 31,100 -1,033 Descending New York Center
Tue 06:33:15 AM 41.3033 -73.9086 233° Southwest 380 437 30,100 -1,017 Descending New York Center
Tue 06:34:13 AM 41.2397 -74.0214 233° Southwest 380 437 29,100 -1,068 Descending New York Center
Tue 06:35:13 AM 41.1719 -74.1367 232° Southwest 380 437 28,000 -545 Descending New York Center
Tue 06:36:14 AM 41.1019 -74.2486 230° Southwest 394 453 28,000  Level New York Center
Tue 06:37:14 AM 41.0339 -74.3664 233° Southwest 399 459 28,000  Level New York Center
Tue 06:38:14 AM 40.9658 -74.4836 232° Southwest 405 466 28,000  Level New York Center
Tue 06:39:14 AM 40.9017 -74.6008 234° Southwest 405 466 28,000  Level New York Center
Tue 06:40:14 AM 40.8594 -74.7383 248° West 400 460 28,000  Level New York Center
Tue 06:41:15 AM 40.8242 -74.8597 249° West 400 460 28,000  Level New York Center
Tue 06:42:13 AM 40.7819 -74.9942 248° West 400 460 28,000 -50 Level New York Center
Tue 06:43:14 AM 40.7417 -75.1258 248° West 400 460 27,900 -484 Descending New York Center
Tue 06:44:17 AM 40.6992 -75.2600 247° West 400 460 27,000 -893 Descending New York Center
Tue 06:45:15 AM 40.6544 -75.3911 246° West 406 467 26,100 -983 Descending New York Center
Tue 06:46:13 AM 40.6364 -75.5322 260° West 406 467 25,100 -1,008 Descending New York Center
Tue 06:47:14 AM 40.6328 -75.6714 268° West 389 448 24,100 -942 Descending New York Center
Tue 06:48:14 AM 40.5742 -75.7767 234° Southwest 356 410 23,200 -942 Descending New York Center
Tue 06:49:15 AM 40.4914 -75.8606 218° Southwest 358 412 22,200 -958 Descending New York Center
Tue 06:50:13 AM 40.3992 -75.9683 222° Southwest 387 445 21,300 -950 Descending New York Center
Tue 06:51:15 AM 40.3156 -76.0656 222° Southwest 399 459 20,300 -639 Descending New York Center
Tue 06:52:15 AM 40.2367 -76.1547 221° Southwest 404 465 20,000 -151 Descending New York Center
Tue 06:53:14 AM 40.1839 -76.2158 222° Southwest 369 425 20,000 -250 Level New York Center
Tue 06:54:15 AM 40.1131 -76.3025 223° Southwest 336 387 19,500 -793 Descending New York Center
Tue 06:55:15 AM 40.0728 -76.4025 242° Southwest 316 364 18,400 -1,119 Descending New York Center
Tue 06:56:13 AM 40.0817 -76.5253 275° West 292 336 17,300 -459 Descending New York Center
Tue 06:58:31 AM 39.9833 -76.7333 238° Southwest 293 337 16,900 -91 Descending Potomac TRACON
Tue 06:59:30 AM 39.9333 -76.8167 232° Southwest 296 341 17,000 50 Climbing Potomac TRACON
Tue 07:00:30 AM 39.8833 -76.9000 232° Southwest 302 348 17,000 -263 Level Potomac TRACON
Tue 07:01:24 AM 39.8333 -76.9667 226° Southwest 302 348 16,500 -1,252 Descending Potomac TRACON
Tue 07:02:25 AM 39.7833 -77.0500 232° Southwest 294 338 14,600 -1,884 Descending Potomac TRACON
Tue 07:03:25 AM 39.7500 -77.1333 243° Southwest 281 323 12,700 -1,900 Descending Potomac TRACON
Tue 07:04:25 AM 39.7000 -77.2000 226° Southwest 274 315 10,800 -1,900 Descending Potomac TRACON
Tue 07:05:25 AM 39.6500 -77.2833 232° Southwest 268 308 8,900 -1,700 Descending Potomac TRACON
Tue 07:06:25 AM 39.6000 -77.3500 226° Southwest 262 302 7,400 -991 Descending Potomac TRACON
Tue 07:07:20 AM 39.5333 -77.3833 201° Southwest 257 296 7,000 -730 Descending Potomac TRACON
Tue 07:08:20 AM 39.4667 -77.4333 210° Southwest 270 311 6,000 -950 Descending Potomac TRACON
Tue 07:09:20 AM 39.4000 -77.4500 191° South 272 313 5,100 -496 Descending Potomac TRACON
Tue 07:10:21 AM 39.3167 -77.4500 180° South 273 314 5,000 -446 Descending Potomac TRACON
Tue 07:11:21 AM 39.2500 -77.4500 180° South 245 282 4,200 -500 Descending Potomac TRACON
Tue 07:12:21 AM 39.1833 -77.4500 180° South 232 267 4,000 -545 Descending Potomac TRACON
Tue 07:13:22 AM 39.1167 -77.4500 180° South 230 265 3,100 -885 Descending Potomac TRACON

Login

Don't have an account? Register now (free) for customized features, flight alerts, and more!